createdAt,value
2023-04-30T00:01:56.984Z,46.21
2023-04-30T00:04:23.641Z,46.19
2023-04-30T00:06:50.271Z,46.24
2023-04-30T00:09:16.811Z,46.41
2023-04-30T00:11:43.338Z,46.32
2023-04-30T00:14:09.902Z,46.30
2023-04-30T00:16:36.430Z,46.40
2023-04-30T00:19:03.003Z,46.35
2023-04-30T00:21:29.556Z,46.69
2023-04-30T00:23:56.077Z,46.41
2023-04-30T00:26:22.546Z,46.43
2023-04-30T00:28:49.011Z,46.35
2023-04-30T00:31:15.596Z,45.96
2023-04-30T00:33:42.199Z,46.11
2023-04-30T00:36:08.775Z,46.19
2023-04-30T00:38:35.347Z,46.20
2023-04-30T00:41:02.023Z,46.50
2023-04-30T00:43:28.587Z,46.17
2023-04-30T00:45:55.168Z,46.00
2023-04-30T00:48:21.689Z,45.98
2023-04-30T00:50:48.219Z,46.13
2023-04-30T00:53:14.771Z,46.07
2023-04-30T00:55:41.389Z,46.08
2023-04-30T00:58:08.005Z,46.25
2023-04-30T01:00:34.594Z,46.27
2023-04-30T01:03:01.183Z,46.24
2023-04-30T01:05:27.727Z,46.33
2023-04-30T01:07:54.249Z,46.41
2023-04-30T01:10:20.869Z,46.20
2023-04-30T01:12:47.334Z,45.94
2023-04-30T01:15:13.852Z,46.04
2023-04-30T01:17:40.424Z,46.17
2023-04-30T01:20:06.914Z,45.91
2023-04-30T01:22:33.339Z,45.90
2023-04-30T01:24:59.884Z,46.27
2023-04-30T01:27:26.432Z,46.09
2023-04-30T01:29:53.214Z,45.98
2023-04-30T01:32:19.802Z,45.98
2023-04-30T01:34:46.255Z,45.85
2023-04-30T01:37:12.761Z,45.98
2023-04-30T01:39:39.350Z,46.03
2023-04-30T01:42:05.964Z,46.19
2023-04-30T01:44:32.578Z,45.72
2023-04-30T01:46:59.103Z,45.96
2023-04-30T01:49:25.644Z,46.39
2023-04-30T01:51:52.128Z,46.09
2023-04-30T01:54:18.540Z,45.99
2023-04-30T01:56:45.118Z,45.81
2023-04-30T01:59:11.599Z,46.09
2023-04-30T02:01:38.243Z,45.64
2023-04-30T02:04:05.179Z,45.58
2023-04-30T02:06:32.105Z,46.13
2023-04-30T02:08:58.776Z,46.01
2023-04-30T02:11:25.292Z,46.17
2023-04-30T02:13:51.831Z,46.05
2023-04-30T02:16:18.319Z,45.72
2023-04-30T02:18:44.961Z,45.55
2023-04-30T02:21:11.447Z,45.96
2023-04-30T02:23:37.925Z,45.83
2023-04-30T02:26:04.441Z,45.98
2023-04-30T02:28:31.066Z,45.70
2023-04-30T02:30:57.647Z,46.05
2023-04-30T02:33:24.154Z,45.79
2023-04-30T02:35:50.692Z,45.93
2023-04-30T02:38:17.168Z,46.08
2023-04-30T02:40:43.810Z,45.83
2023-04-30T02:43:10.311Z,45.77
2023-04-30T02:45:36.837Z,46.10
2023-04-30T02:48:03.430Z,45.84
2023-04-30T02:50:30.020Z,45.84
2023-04-30T02:52:56.695Z,45.70
2023-04-30T02:55:26.007Z,45.76
2023-04-30T02:57:52.585Z,45.97
2023-04-30T03:00:19.126Z,45.39
2023-04-30T03:02:45.738Z,45.56
2023-04-30T03:05:12.493Z,45.66
2023-04-30T03:07:39.031Z,45.58
2023-04-30T03:10:05.576Z,45.49
2023-04-30T03:12:32.094Z,45.83
2023-04-30T03:14:58.554Z,45.23
2023-04-30T03:17:25.092Z,45.67
2023-04-30T03:19:51.579Z,45.46
2023-04-30T03:22:18.085Z,45.58
2023-04-30T03:24:44.562Z,45.65
2023-04-30T03:27:11.225Z,45.47
2023-04-30T03:29:37.780Z,45.57
2023-04-30T03:32:04.375Z,45.66
2023-04-30T03:34:30.937Z,45.50
2023-04-30T03:36:57.489Z,45.39
2023-04-30T03:39:23.958Z,45.56
2023-04-30T03:41:50.470Z,45.49
2023-04-30T03:44:17.203Z,45.20
2023-04-30T03:46:43.837Z,45.35
2023-04-30T03:49:10.549Z,45.51
2023-04-30T03:51:37.105Z,45.42
2023-04-30T03:54:03.625Z,45.42
2023-04-30T03:56:30.258Z,45.52
2023-04-30T03:58:56.785Z,45.43
2023-04-30T04:01:26.077Z,45.26
2023-04-30T04:03:52.537Z,45.12
2023-04-30T04:06:19.143Z,45.16
2023-04-30T04:08:45.734Z,45.43
2023-04-30T04:11:12.230Z,45.37
2023-04-30T04:13:38.889Z,45.09
2023-04-30T04:16:05.477Z,45.54
2023-04-30T04:18:31.981Z,45.24
2023-04-30T04:20:58.508Z,45.21
2023-04-30T04:23:25.071Z,45.50
2023-04-30T04:25:51.495Z,45.41
2023-04-30T04:28:17.979Z,45.52
2023-04-30T04:30:44.571Z,45.21
2023-04-30T04:33:11.060Z,45.09
2023-04-30T04:35:37.648Z,45.23
2023-04-30T04:38:04.201Z,45.28
2023-04-30T04:40:31.775Z,45.21
2023-04-30T04:42:58.423Z,45.28
2023-04-30T04:45:24.983Z,44.96
2023-04-30T04:47:51.570Z,45.19
2023-04-30T04:50:18.159Z,45.04
2023-04-30T04:52:44.710Z,45.15
2023-04-30T04:55:11.324Z,45.07
2023-04-30T04:57:37.872Z,45.25
2023-04-30T05:00:04.418Z,45.13
2023-04-30T05:02:30.987Z,44.96
2023-04-30T05:04:57.617Z,44.90
2023-04-30T05:07:24.138Z,45.04
2023-04-30T05:09:50.612Z,44.93
2023-04-30T05:12:17.145Z,45.04
2023-04-30T05:14:43.631Z,44.92
2023-04-30T05:17:10.151Z,44.78
2023-04-30T05:19:36.693Z,44.69
2023-04-30T05:22:03.194Z,44.53
2023-04-30T05:24:29.734Z,44.74
2023-04-30T05:26:56.261Z,44.59
2023-04-30T05:29:22.734Z,44.89
2023-04-30T05:31:49.280Z,44.75
2023-04-30T05:34:15.877Z,44.83
2023-04-30T05:36:43.776Z,44.74
2023-04-30T05:39:10.847Z,44.75
2023-04-30T05:41:37.373Z,44.55
2023-04-30T05:44:03.893Z,44.39
2023-04-30T05:46:30.490Z,44.26
2023-04-30T05:48:57.038Z,44.44
2023-04-30T05:51:23.444Z,44.52
2023-04-30T05:53:50.068Z,44.76
2023-04-30T05:56:16.615Z,44.39
2023-04-30T05:58:43.181Z,44.51
2023-04-30T06:01:09.668Z,44.08
2023-04-30T06:03:36.204Z,44.46
2023-04-30T06:06:02.796Z,44.32
2023-04-30T06:08:29.466Z,44.06
2023-04-30T06:10:56.045Z,44.01
2023-04-30T06:13:22.574Z,43.69
2023-04-30T06:15:49.096Z,43.78
2023-04-30T06:18:15.633Z,44.09
2023-04-30T06:20:42.170Z,43.89
2023-04-30T06:23:08.724Z,43.61
2023-04-30T06:25:35.237Z,43.79
2023-04-30T06:28:01.702Z,43.74
2023-04-30T06:30:28.200Z,43.71
2023-04-30T06:32:54.709Z,43.87
2023-04-30T06:35:21.271Z,43.67
2023-04-30T06:37:47.800Z,43.61
2023-04-30T06:40:14.279Z,43.81
2023-04-30T06:42:40.805Z,43.87
2023-04-30T06:45:07.288Z,43.67
2023-04-30T06:47:34.004Z,43.79
2023-04-30T06:50:00.486Z,43.87
2023-04-30T06:52:27.004Z,43.55
2023-04-30T06:54:53.504Z,43.92
2023-04-30T06:57:19.970Z,43.65
2023-04-30T06:59:46.585Z,43.91
2023-04-30T07:02:13.191Z,43.95
2023-04-30T07:04:39.731Z,43.93
2023-04-30T07:07:06.297Z,43.33
2023-04-30T07:09:32.793Z,43.44
2023-04-30T07:11:59.243Z,43.41
2023-04-30T07:14:25.815Z,43.46
2023-04-30T07:16:55.286Z,43.52
2023-04-30T07:19:21.792Z,44.08
2023-04-30T07:21:48.376Z,44.14
2023-04-30T07:24:14.906Z,44.04
2023-04-30T07:26:41.443Z,44.54
2023-04-30T07:29:07.915Z,44.20
2023-04-30T07:31:34.467Z,43.88
2023-04-30T07:34:01.233Z,44.17
2023-04-30T07:36:27.802Z,44.15
2023-04-30T07:38:54.310Z,44.25
2023-04-30T07:41:20.848Z,44.25
2023-04-30T07:43:47.385Z,44.56
2023-04-30T07:46:14.085Z,44.24
2023-04-30T07:48:40.683Z,43.99
2023-04-30T07:51:08.481Z,44.30
2023-04-30T07:53:34.918Z,44.19
2023-04-30T07:56:01.500Z,43.85
2023-04-30T07:58:28.060Z,44.36
2023-04-30T08:00:54.557Z,44.38
2023-04-30T08:03:21.203Z,44.09
2023-04-30T08:05:47.927Z,44.15
2023-04-30T08:08:14.540Z,43.97
2023-04-30T08:10:41.028Z,44.15
2023-04-30T08:13:07.571Z,44.34
2023-04-30T08:15:34.106Z,44.38
2023-04-30T08:18:00.758Z,44.09
2023-04-30T08:20:27.342Z,43.90
2023-04-30T08:22:53.929Z,44.01
2023-04-30T08:25:20.428Z,43.78
2023-04-30T08:27:46.988Z,43.68
2023-04-30T08:30:13.518Z,43.50
2023-04-30T08:32:40.036Z,43.86
2023-04-30T08:35:06.702Z,43.91
2023-04-30T08:37:33.148Z,44.01
2023-04-30T08:39:59.599Z,44.06
2023-04-30T08:42:26.194Z,44.19
2023-04-30T08:44:52.789Z,44.24
2023-04-30T08:47:19.244Z,43.81
2023-04-30T08:49:45.792Z,44.08
2023-04-30T08:52:12.407Z,44.24
2023-04-30T08:54:38.993Z,44.06
2023-04-30T08:57:05.578Z,43.90
2023-04-30T08:59:32.173Z,43.83
2023-04-30T09:02:01.576Z,43.44
2023-04-30T09:04:28.153Z,43.89
2023-04-30T09:06:54.713Z,43.84
2023-04-30T09:09:21.145Z,43.89
2023-04-30T09:11:47.657Z,43.87
2023-04-30T09:14:14.135Z,43.57
2023-04-30T09:16:40.675Z,43.61
2023-04-30T09:19:07.320Z,43.83
2023-04-30T09:21:33.808Z,43.98
2023-04-30T09:24:00.420Z,43.60
2023-04-30T09:26:26.942Z,43.82
2023-04-30T09:28:53.681Z,43.54
2023-04-30T09:31:20.216Z,43.36
2023-04-30T09:33:46.841Z,43.40
2023-04-30T09:36:13.339Z,42.89
2023-04-30T09:38:39.837Z,40.97
2023-04-30T09:41:06.328Z,44.01
2023-04-30T09:43:32.906Z,43.88
2023-04-30T09:45:59.557Z,43.84
2023-04-30T09:48:26.226Z,43.56
2023-04-30T09:50:52.870Z,43.39
2023-04-30T09:53:19.371Z,43.46
2023-04-30T09:55:45.956Z,43.94
2023-04-30T09:58:12.445Z,43.95
2023-04-30T10:00:39.027Z,43.98
2023-04-30T10:03:05.644Z,44.20
2023-04-30T10:05:32.254Z,43.67
2023-04-30T10:07:58.748Z,43.79
2023-04-30T10:10:25.314Z,43.63
2023-04-30T10:12:51.759Z,43.74
2023-04-30T10:15:18.249Z,43.80
2023-04-30T10:17:44.753Z,43.44
2023-04-30T10:20:11.253Z,43.15
2023-04-30T10:22:37.785Z,43.06
2023-04-30T10:25:04.260Z,43.28
2023-04-30T10:27:30.749Z,42.87
2023-04-30T10:29:57.487Z,42.92
2023-04-30T10:32:24.312Z,42.89
2023-04-30T10:34:50.903Z,43.34
2023-04-30T10:37:17.501Z,42.94
2023-04-30T10:39:44.054Z,42.83
2023-04-30T10:42:10.600Z,42.68
2023-04-30T10:44:37.241Z,42.95
2023-04-30T10:47:03.779Z,42.73
2023-04-30T10:49:30.277Z,42.67
2023-04-30T10:51:56.780Z,42.51
2023-04-30T10:54:23.343Z,42.54
2023-04-30T10:56:49.943Z,42.84
2023-04-30T10:59:16.539Z,42.72
2023-04-30T11:01:43.094Z,42.58
2023-04-30T11:04:09.772Z,42.40
2023-04-30T11:06:36.443Z,42.45
2023-04-30T11:09:03.073Z,42.33
2023-04-30T11:11:29.523Z,42.29
2023-04-30T11:13:56.093Z,42.27
2023-04-30T11:16:22.639Z,42.62
2023-04-30T11:18:49.378Z,42.25
2023-04-30T11:21:15.950Z,42.28
2023-04-30T11:23:42.607Z,42.19
2023-04-30T11:26:09.132Z,42.15
2023-04-30T11:28:35.805Z,42.60
2023-04-30T11:31:02.363Z,42.49
2023-04-30T11:33:28.902Z,42.52
2023-04-30T11:35:55.473Z,42.29
2023-04-30T11:38:22.048Z,42.39
2023-04-30T11:40:48.573Z,41.90
2023-04-30T11:43:15.048Z,42.23
2023-04-30T11:45:41.624Z,41.81
2023-04-30T11:48:11.313Z,41.71
2023-04-30T11:50:38.913Z,42.30
2023-04-30T11:53:07.069Z,42.28
2023-04-30T11:55:33.593Z,42.20
2023-04-30T11:58:00.162Z,42.13
2023-04-30T12:00:26.715Z,42.32
2023-04-30T12:02:56.520Z,42.39
2023-04-30T12:05:23.298Z,42.20
2023-04-30T12:07:49.821Z,42.18
2023-04-30T12:10:16.467Z,42.20
2023-04-30T12:12:43.089Z,42.20
2023-04-30T12:15:09.593Z,42.21
2023-04-30T12:17:36.059Z,41.84
2023-04-30T12:20:02.688Z,42.06
2023-04-30T12:22:29.234Z,42.09
2023-04-30T12:24:55.844Z,41.67
2023-04-30T12:27:22.327Z,41.78
2023-04-30T12:29:48.882Z,41.76
2023-04-30T12:32:15.388Z,41.91
2023-04-30T12:34:41.893Z,41.79
2023-04-30T12:37:08.417Z,41.95
2023-04-30T12:39:34.940Z,41.89
2023-04-30T12:42:01.442Z,42.08
2023-04-30T12:44:27.935Z,41.97
2023-04-30T12:46:54.490Z,42.00
2023-04-30T12:49:21.044Z,41.96
2023-04-30T12:51:47.575Z,41.52
2023-04-30T12:54:14.074Z,41.67
2023-04-30T12:56:40.541Z,41.81
2023-04-30T12:59:07.035Z,41.65
2023-04-30T13:01:33.546Z,41.41
2023-04-30T13:04:00.239Z,41.46
2023-04-30T13:06:26.919Z,41.25
2023-04-30T13:11:22.823Z,41.17
2023-04-30T13:13:49.306Z,41.30
2023-04-30T13:16:15.867Z,40.70
2023-04-30T13:18:42.436Z,41.21
2023-04-30T13:21:09.147Z,40.94
2023-04-30T13:23:48.616Z,41.10
2023-04-30T13:26:18.267Z,40.99
2023-04-30T13:28:44.725Z,41.29
2023-04-30T13:31:11.331Z,41.45
2023-04-30T13:33:37.771Z,41.23
2023-04-30T13:36:04.196Z,41.26
2023-04-30T13:38:30.681Z,41.26
2023-04-30T13:40:58.509Z,41.21
2023-04-30T13:43:25.129Z,41.58
2023-04-30T13:45:51.641Z,41.95
2023-04-30T13:48:18.237Z,42.00
2023-04-30T13:50:44.763Z,41.83
2023-04-30T13:53:11.226Z,41.78
2023-04-30T13:55:37.654Z,42.00
2023-04-30T13:58:04.166Z,41.86
2023-04-30T14:00:30.879Z,42.05
2023-04-30T14:02:57.508Z,42.53
2023-04-30T14:05:24.078Z,42.35
2023-04-30T14:07:50.675Z,42.26
2023-04-30T14:10:17.126Z,42.03
2023-04-30T14:12:43.677Z,42.40
2023-04-30T14:15:10.123Z,42.84
2023-04-30T14:17:36.728Z,42.74
2023-04-30T14:20:03.284Z,42.87
2023-04-30T14:22:29.801Z,42.92
2023-04-30T14:24:56.321Z,42.62
2023-04-30T14:27:22.758Z,42.53
2023-04-30T14:29:49.249Z,42.68
2023-04-30T14:32:15.845Z,42.78
2023-04-30T14:34:42.324Z,42.76
2023-04-30T14:37:08.844Z,42.81
2023-04-30T14:39:35.380Z,42.80
2023-04-30T14:42:01.916Z,42.64
2023-04-30T14:44:28.417Z,42.89
2023-04-30T14:46:55.153Z,42.91
2023-04-30T14:49:21.739Z,43.60
2023-04-30T14:51:50.799Z,43.30
2023-04-30T14:54:17.260Z,43.79
2023-04-30T14:56:43.738Z,43.99
2023-04-30T14:59:10.197Z,43.95
2023-04-30T15:01:36.757Z,44.48
2023-04-30T15:04:03.296Z,43.98
2023-04-30T15:06:29.762Z,44.98
2023-04-30T15:08:56.290Z,45.21
2023-04-30T15:11:22.761Z,45.64
2023-04-30T15:13:49.221Z,45.88
2023-04-30T15:16:15.742Z,45.53
2023-04-30T15:18:42.332Z,45.54
2023-04-30T15:21:08.774Z,45.79
2023-04-30T15:23:35.324Z,45.72
2023-04-30T15:26:01.834Z,45.92
2023-04-30T15:28:28.328Z,45.63
2023-04-30T15:30:54.885Z,45.63
2023-04-30T15:33:21.390Z,45.57
2023-04-30T15:35:47.918Z,45.67
2023-04-30T15:38:14.371Z,45.51
2023-04-30T15:40:40.903Z,45.84
2023-04-30T15:43:07.405Z,46.06
2023-04-30T15:45:33.930Z,46.37
2023-04-30T15:48:00.561Z,46.84
2023-04-30T15:50:27.116Z,46.61
2023-04-30T15:52:53.605Z,46.50
2023-04-30T15:55:20.126Z,46.38
2023-04-30T15:57:46.662Z,46.25
2023-04-30T16:00:13.214Z,45.77
2023-04-30T16:02:39.864Z,46.26
2023-04-30T16:05:06.388Z,46.34
2023-04-30T16:07:33.076Z,45.95
2023-04-30T16:09:59.582Z,45.76
2023-04-30T16:12:26.437Z,45.71
2023-04-30T16:14:52.945Z,45.73
2023-04-30T16:17:19.448Z,45.75
2023-04-30T16:19:46.018Z,45.75
2023-04-30T16:22:12.493Z,45.95
2023-04-30T16:24:39.004Z,45.69
2023-04-30T16:27:05.491Z,45.59
2023-04-30T16:29:31.960Z,45.22
2023-04-30T16:31:59.607Z,45.64
2023-04-30T16:34:26.096Z,45.35
2023-04-30T16:36:52.625Z,45.60
2023-04-30T16:39:19.108Z,45.28
2023-04-30T16:41:45.592Z,45.22
2023-04-30T16:44:12.103Z,45.27
2023-04-30T16:46:38.676Z,45.38
2023-04-30T16:49:05.219Z,45.57
2023-04-30T16:51:31.720Z,44.06
2023-04-30T16:53:58.253Z,43.86
2023-04-30T16:56:24.792Z,43.90
2023-04-30T16:58:51.278Z,43.71
2023-04-30T17:01:17.817Z,44.08
2023-04-30T17:03:44.481Z,44.16
2023-04-30T17:06:11.106Z,44.35
2023-04-30T17:08:37.735Z,46.25
2023-04-30T17:11:04.234Z,46.86
2023-04-30T17:13:30.732Z,46.60
2023-04-30T17:15:58.269Z,46.36
2023-04-30T17:18:25.866Z,46.55
2023-04-30T17:20:52.402Z,46.75
2023-04-30T17:23:18.880Z,46.74
2023-04-30T17:25:46.143Z,47.21
2023-04-30T17:28:12.837Z,47.33
2023-04-30T17:30:39.352Z,47.10
2023-04-30T17:33:05.976Z,46.91
2023-04-30T17:35:32.589Z,47.20
2023-04-30T17:37:59.122Z,46.87
2023-04-30T17:40:25.687Z,46.59
2023-04-30T17:42:52.196Z,46.42
2023-04-30T17:45:18.663Z,46.43
2023-04-30T17:47:45.244Z,46.45
2023-04-30T17:50:11.867Z,46.58
2023-04-30T17:52:38.396Z,46.52
2023-04-30T17:55:04.942Z,48.17
2023-04-30T17:57:31.446Z,48.76
2023-04-30T17:59:58.495Z,48.39
2023-04-30T18:02:25.366Z,48.31
2023-04-30T18:04:52.022Z,48.34
2023-04-30T18:07:18.616Z,48.06
2023-04-30T18:09:45.048Z,48.14
2023-04-30T18:12:11.851Z,47.74
2023-04-30T18:14:38.330Z,47.47
2023-04-30T18:17:04.948Z,47.15
2023-04-30T18:19:31.683Z,47.59
2023-04-30T18:21:58.573Z,47.34
2023-04-30T18:24:26.129Z,47.56
2023-04-30T18:26:52.686Z,47.73
2023-04-30T18:29:19.520Z,47.56
2023-04-30T18:31:46.051Z,47.58
2023-04-30T18:34:12.591Z,47.70
2023-04-30T18:36:39.099Z,48.08
2023-04-30T18:39:05.597Z,47.63
2023-04-30T18:41:32.106Z,47.31
2023-04-30T18:43:58.942Z,47.51
2023-04-30T18:46:25.658Z,47.56
2023-04-30T18:48:52.335Z,47.46
2023-04-30T18:51:18.840Z,47.17
2023-04-30T18:53:45.353Z,47.29
2023-04-30T18:56:11.937Z,47.02
2023-04-30T18:58:38.554Z,46.94
2023-04-30T19:01:05.177Z,47.03
2023-04-30T19:03:31.999Z,47.03
2023-04-30T19:05:58.804Z,46.88
2023-04-30T19:08:25.617Z,47.05
2023-04-30T19:10:52.226Z,46.79
2023-04-30T19:13:18.734Z,46.82
2023-04-30T19:15:45.299Z,47.01
2023-04-30T19:18:11.842Z,46.66
2023-04-30T19:20:38.451Z,47.01
2023-04-30T19:23:05.034Z,46.41
2023-04-30T19:25:31.558Z,46.62
2023-04-30T19:27:58.021Z,46.81
2023-04-30T19:30:24.612Z,46.61
2023-04-30T19:32:51.231Z,46.51
2023-04-30T19:35:17.773Z,46.61
2023-04-30T19:37:44.350Z,46.33
2023-04-30T19:40:10.976Z,46.29
2023-04-30T19:42:37.509Z,46.29
2023-04-30T19:45:04.127Z,46.25
2023-04-30T19:47:30.735Z,46.25
2023-04-30T19:49:57.605Z,46.30
2023-04-30T19:52:24.340Z,46.25
2023-04-30T19:54:50.884Z,46.28
2023-04-30T19:57:17.485Z,46.41
2023-04-30T19:59:44.063Z,45.99
2023-04-30T20:02:10.714Z,46.24
2023-04-30T20:04:37.313Z,45.97
2023-04-30T20:07:03.809Z,46.07
2023-04-30T20:09:30.350Z,46.24
2023-04-30T20:11:56.926Z,46.23
2023-04-30T20:14:23.529Z,46.02
2023-04-30T20:16:50.132Z,46.26
2023-04-30T20:19:16.744Z,46.09
2023-04-30T20:21:43.345Z,45.94
2023-04-30T20:24:09.864Z,46.06
2023-04-30T20:26:36.409Z,46.27
2023-04-30T20:29:03.043Z,45.73
2023-04-30T20:31:29.605Z,45.85
2023-04-30T20:33:56.142Z,45.68
2023-04-30T20:36:22.637Z,45.88
2023-04-30T20:38:49.185Z,45.58
2023-04-30T20:41:15.773Z,45.98
2023-04-30T20:43:42.272Z,45.56
2023-04-30T20:46:08.778Z,45.59
2023-04-30T20:48:35.370Z,45.70
2023-04-30T20:51:02.000Z,45.68
2023-04-30T20:53:28.504Z,45.61
2023-04-30T20:55:54.993Z,45.84
2023-04-30T20:58:21.561Z,45.88
2023-04-30T21:00:48.106Z,45.80
2023-04-30T21:03:14.857Z,45.60
2023-04-30T21:05:41.486Z,45.57
2023-04-30T21:08:07.944Z,45.65
2023-04-30T21:10:34.378Z,45.61
2023-04-30T21:13:00.862Z,45.51
2023-04-30T21:15:27.337Z,45.43
2023-04-30T21:17:53.890Z,45.42
2023-04-30T21:20:20.516Z,45.49
2023-04-30T21:22:47.001Z,45.46
2023-04-30T21:25:13.570Z,45.33
2023-04-30T21:27:40.090Z,45.57
2023-04-30T21:30:06.596Z,45.89
2023-04-30T21:32:33.226Z,45.52
2023-04-30T21:34:59.784Z,45.46
2023-04-30T21:37:26.254Z,45.69
2023-04-30T21:39:52.782Z,45.83
2023-04-30T21:42:19.463Z,45.52
2023-04-30T21:44:46.012Z,45.65
2023-04-30T21:47:12.684Z,45.69
2023-04-30T21:49:39.257Z,45.58
2023-04-30T21:52:05.830Z,45.75
2023-04-30T21:54:32.347Z,45.72
2023-04-30T21:56:58.852Z,45.94
2023-04-30T21:59:25.375Z,45.41
2023-04-30T22:01:51.950Z,45.57
2023-04-30T22:04:18.689Z,45.63
2023-04-30T22:06:45.349Z,45.70
2023-04-30T22:09:12.004Z,45.54
2023-04-30T22:11:38.649Z,45.73
2023-04-30T22:14:05.182Z,45.51
2023-04-30T22:16:31.802Z,45.85
2023-04-30T22:18:59.126Z,45.91
2023-04-30T22:21:25.829Z,45.91
2023-04-30T22:23:52.393Z,45.86
2023-04-30T22:26:18.876Z,45.99
2023-04-30T22:28:45.346Z,45.69
2023-04-30T22:31:11.988Z,46.01
2023-04-30T22:33:38.614Z,45.74
2023-04-30T22:36:05.164Z,45.54
2023-04-30T22:38:31.796Z,45.68
2023-04-30T22:40:58.341Z,45.82
2023-04-30T22:43:24.984Z,45.98
2023-04-30T22:45:51.485Z,45.44
2023-04-30T22:48:18.075Z,46.01
2023-04-30T22:50:44.662Z,45.66
2023-04-30T22:53:11.221Z,45.58
2023-04-30T22:55:37.793Z,45.60
2023-04-30T22:58:04.405Z,46.00
2023-04-30T23:00:30.944Z,45.73
2023-04-30T23:02:57.519Z,45.88
2023-04-30T23:05:24.153Z,45.74
2023-04-30T23:07:50.705Z,45.66
2023-04-30T23:10:17.310Z,45.72
2023-04-30T23:12:43.901Z,45.46
2023-04-30T23:15:10.462Z,45.68
2023-04-30T23:17:37.222Z,45.88
2023-04-30T23:20:03.822Z,45.89
2023-04-30T23:22:30.371Z,45.88
2023-04-30T23:24:56.941Z,46.01
2023-04-30T23:27:23.514Z,45.90
2023-04-30T23:29:50.012Z,45.87
2023-04-30T23:32:16.552Z,46.03
2023-04-30T23:34:43.159Z,45.76
2023-04-30T23:37:09.743Z,45.59
2023-04-30T23:39:36.318Z,46.09
2023-04-30T23:42:02.804Z,45.88
2023-04-30T23:44:32.197Z,46.06
2023-04-30T23:46:59.083Z,45.54
2023-04-30T23:49:25.629Z,45.68
2023-04-30T23:51:52.244Z,45.80
2023-04-30T23:54:18.773Z,45.63
2023-04-30T23:56:45.322Z,45.81
2023-04-30T23:59:11.859Z,45.88
